sensor_id;sensor_type;location;lat;lon;timestamp;P1;durP1;ratioP1;P2;durP2;ratioP2
74471;SDS011;62920;53.572;10.050;2023-04-06T00:00:36;5.72;;;3.13;;
74471;SDS011;62920;53.572;10.050;2023-04-06T00:03:01;7.63;;;3.20;;
74471;SDS011;62920;53.572;10.050;2023-04-06T00:05:27;6.72;;;2.90;;
74471;SDS011;62920;53.572;10.050;2023-04-06T00:07:55;6.22;;;3.10;;
74471;SDS011;62920;53.572;10.050;2023-04-06T00:10:21;10.65;;;3.10;;
74471;SDS011;62920;53.572;10.050;2023-04-06T00:12:46;9.65;;;3.20;;
74471;SDS011;62920;53.572;10.050;2023-04-06T00:15:11;8.43;;;3.10;;
74471;SDS011;62920;53.572;10.050;2023-04-06T00:17:37;6.63;;;3.30;;
74471;SDS011;62920;53.572;10.050;2023-04-06T00:20:02;8.00;;;3.13;;
74471;SDS011;62920;53.572;10.050;2023-04-06T00:22:29;9.68;;;3.42;;
74471;SDS011;62920;53.572;10.050;2023-04-06T00:24:54;6.80;;;2.83;;
74471;SDS011;62920;53.572;10.050;2023-04-06T00:27:20;7.72;;;3.53;;
74471;SDS011;62920;53.572;10.050;2023-04-06T00:29:45;9.27;;;3.40;;
74471;SDS011;62920;53.572;10.050;2023-04-06T00:32:10;5.53;;;2.78;;
74471;SDS011;62920;53.572;10.050;2023-04-06T00:34:36;7.00;;;3.08;;
74471;SDS011;62920;53.572;10.050;2023-04-06T00:37:01;6.47;;;3.03;;
74471;SDS011;62920;53.572;10.050;2023-04-06T00:39:27;7.20;;;3.33;;
74471;SDS011;62920;53.572;10.050;2023-04-06T00:41:52;7.30;;;3.65;;
74471;SDS011;62920;53.572;10.050;2023-04-06T00:44:19;7.97;;;3.47;;
74471;SDS011;62920;53.572;10.050;2023-04-06T00:46:44;7.18;;;3.05;;
74471;SDS011;62920;53.572;10.050;2023-04-06T00:49:10;7.88;;;3.17;;
74471;SDS011;62920;53.572;10.050;2023-04-06T00:51:35;7.00;;;2.90;;
74471;SDS011;62920;53.572;10.050;2023-04-06T00:54:01;8.82;;;3.58;;
74471;SDS011;62920;53.572;10.050;2023-04-06T00:56:26;8.07;;;3.28;;
74471;SDS011;62920;53.572;10.050;2023-04-06T00:58:52;7.88;;;3.78;;
74471;SDS011;62920;53.572;10.050;2023-04-06T01:01:20;7.13;;;3.10;;
74471;SDS011;62920;53.572;10.050;2023-04-06T01:03:46;6.07;;;3.00;;
74471;SDS011;62920;53.572;10.050;2023-04-06T01:06:14;7.70;;;3.20;;
74471;SDS011;62920;53.572;10.050;2023-04-06T01:08:39;6.35;;;3.03;;
74471;SDS011;62920;53.572;10.050;2023-04-06T01:11:05;7.38;;;3.40;;
74471;SDS011;62920;53.572;10.050;2023-04-06T01:13:30;8.48;;;3.67;;
74471;SDS011;62920;53.572;10.050;2023-04-06T01:15:56;5.45;;;2.92;;
74471;SDS011;62920;53.572;10.050;2023-04-06T01:18:25;7.32;;;3.13;;
74471;SDS011;62920;53.572;10.050;2023-04-06T01:20:51;9.10;;;3.05;;
74471;SDS011;62920;53.572;10.050;2023-04-06T01:23:17;6.88;;;2.83;;
74471;SDS011;62920;53.572;10.050;2023-04-06T01:25:42;12.73;;;3.40;;
74471;SDS011;62920;53.572;10.050;2023-04-06T01:28:07;9.00;;;3.13;;
74471;SDS011;62920;53.572;10.050;2023-04-06T01:30:33;7.15;;;3.10;;
74471;SDS011;62920;53.572;10.050;2023-04-06T01:32:58;6.50;;;2.83;;
74471;SDS011;62920;53.572;10.050;2023-04-06T01:35:25;5.78;;;2.80;;
74471;SDS011;62920;53.572;10.050;2023-04-06T01:37:52;7.25;;;3.38;;
74471;SDS011;62920;53.572;10.050;2023-04-06T01:40:18;8.90;;;3.42;;
74471;SDS011;62920;53.572;10.050;2023-04-06T01:42:43;8.85;;;3.00;;
74471;SDS011;62920;53.572;10.050;2023-04-06T01:45:09;9.80;;;3.20;;
74471;SDS011;62920;53.572;10.050;2023-04-06T01:47:34;5.95;;;3.03;;
74471;SDS011;62920;53.572;10.050;2023-04-06T01:49:59;7.88;;;3.03;;
74471;SDS011;62920;53.572;10.050;2023-04-06T01:52:25;12.70;;;2.97;;
74471;SDS011;62920;53.572;10.050;2023-04-06T01:54:50;7.45;;;3.05;;
74471;SDS011;62920;53.572;10.050;2023-04-06T01:57:16;7.20;;;3.22;;
74471;SDS011;62920;53.572;10.050;2023-04-06T01:59:41;8.02;;;3.30;;
74471;SDS011;62920;53.572;10.050;2023-04-06T02:02:06;6.28;;;2.92;;
74471;SDS011;62920;53.572;10.050;2023-04-06T02:04:32;9.35;;;3.15;;
74471;SDS011;62920;53.572;10.050;2023-04-06T02:06:57;8.98;;;3.05;;
74471;SDS011;62920;53.572;10.050;2023-04-06T02:09:23;5.88;;;2.75;;
74471;SDS011;62920;53.572;10.050;2023-04-06T02:11:48;7.00;;;2.53;;
74471;SDS011;62920;53.572;10.050;2023-04-06T02:14:13;6.00;;;2.88;;
74471;SDS011;62920;53.572;10.050;2023-04-06T02:16:40;8.52;;;3.15;;
74471;SDS011;62920;53.572;10.050;2023-04-06T02:19:05;7.78;;;3.25;;
74471;SDS011;62920;53.572;10.050;2023-04-06T02:21:31;6.60;;;3.17;;
74471;SDS011;62920;53.572;10.050;2023-04-06T02:23:56;6.85;;;3.20;;
74471;SDS011;62920;53.572;10.050;2023-04-06T02:26:21;7.45;;;2.90;;
74471;SDS011;62920;53.572;10.050;2023-04-06T02:28:47;9.55;;;3.92;;
74471;SDS011;62920;53.572;10.050;2023-04-06T02:31:12;8.45;;;3.42;;
74471;SDS011;62920;53.572;10.050;2023-04-06T02:33:40;8.43;;;2.80;;
74471;SDS011;62920;53.572;10.050;2023-04-06T02:36:05;6.05;;;2.95;;
74471;SDS011;62920;53.572;10.050;2023-04-06T02:38:31;6.68;;;3.17;;
74471;SDS011;62920;53.572;10.050;2023-04-06T02:40:56;9.48;;;3.55;;
74471;SDS011;62920;53.572;10.050;2023-04-06T02:43:22;6.10;;;2.90;;
74471;SDS011;62920;53.572;10.050;2023-04-06T02:45:47;6.13;;;3.15;;
74471;SDS011;62920;53.572;10.050;2023-04-06T02:48:13;7.47;;;3.17;;
74471;SDS011;62920;53.572;10.050;2023-04-06T02:50:38;9.52;;;3.45;;
74471;SDS011;62920;53.572;10.050;2023-04-06T02:53:04;7.00;;;3.25;;
74471;SDS011;62920;53.572;10.050;2023-04-06T02:55:29;5.68;;;2.80;;
74471;SDS011;62920;53.572;10.050;2023-04-06T02:57:55;9.65;;;3.15;;
74471;SDS011;62920;53.572;10.050;2023-04-06T03:00:20;7.43;;;3.22;;
74471;SDS011;62920;53.572;10.050;2023-04-06T03:02:46;6.95;;;3.20;;
74471;SDS011;62920;53.572;10.050;2023-04-06T03:05:11;5.95;;;3.03;;
74471;SDS011;62920;53.572;10.050;2023-04-06T03:07:37;7.57;;;3.70;;
74471;SDS011;62920;53.572;10.050;2023-04-06T03:10:02;6.55;;;2.88;;
74471;SDS011;62920;53.572;10.050;2023-04-06T03:12:28;10.55;;;3.00;;
74471;SDS011;62920;53.572;10.050;2023-04-06T03:14:53;5.80;;;2.95;;
74471;SDS011;62920;53.572;10.050;2023-04-06T03:17:18;6.82;;;3.53;;
74471;SDS011;62920;53.572;10.050;2023-04-06T03:19:44;6.68;;;2.97;;
74471;SDS011;62920;53.572;10.050;2023-04-06T03:22:09;5.40;;;2.97;;
74471;SDS011;62920;53.572;10.050;2023-04-06T03:24:35;6.75;;;3.20;;
74471;SDS011;62920;53.572;10.050;2023-04-06T03:27:00;8.75;;;3.63;;
74471;SDS011;62920;53.572;10.050;2023-04-06T03:29:26;9.30;;;3.33;;
74471;SDS011;62920;53.572;10.050;2023-04-06T03:31:52;6.00;;;3.17;;
74471;SDS011;62920;53.572;10.050;2023-04-06T03:34:17;6.43;;;3.15;;
74471;SDS011;62920;53.572;10.050;2023-04-06T03:36:42;8.77;;;3.83;;
74471;SDS011;62920;53.572;10.050;2023-04-06T03:39:08;7.65;;;3.28;;
74471;SDS011;62920;53.572;10.050;2023-04-06T03:41:33;7.82;;;3.40;;
74471;SDS011;62920;53.572;10.050;2023-04-06T03:43:59;8.63;;;3.60;;
74471;SDS011;62920;53.572;10.050;2023-04-06T03:46:24;7.35;;;3.60;;
74471;SDS011;62920;53.572;10.050;2023-04-06T03:48:50;7.30;;;3.65;;
74471;SDS011;62920;53.572;10.050;2023-04-06T03:51:15;9.88;;;3.80;;
74471;SDS011;62920;53.572;10.050;2023-04-06T03:53:41;8.38;;;3.70;;
74471;SDS011;62920;53.572;10.050;2023-04-06T03:56:06;7.85;;;3.63;;
74471;SDS011;62920;53.572;10.050;2023-04-06T03:58:32;8.15;;;3.20;;
74471;SDS011;62920;53.572;10.050;2023-04-06T04:00:57;6.93;;;3.28;;
74471;SDS011;62920;53.572;10.050;2023-04-06T04:03:22;7.53;;;3.67;;
74471;SDS011;62920;53.572;10.050;2023-04-06T04:05:52;7.13;;;3.50;;
74471;SDS011;62920;53.572;10.050;2023-04-06T04:08:19;7.97;;;3.38;;
74471;SDS011;62920;53.572;10.050;2023-04-06T04:10:44;7.18;;;3.97;;
74471;SDS011;62920;53.572;10.050;2023-04-06T04:13:09;7.45;;;3.70;;
74471;SDS011;62920;53.572;10.050;2023-04-06T04:15:35;7.88;;;3.75;;
74471;SDS011;62920;53.572;10.050;2023-04-06T04:18:00;8.80;;;4.53;;
74471;SDS011;62920;53.572;10.050;2023-04-06T04:20:26;9.35;;;3.88;;
74471;SDS011;62920;53.572;10.050;2023-04-06T04:22:51;7.00;;;3.38;;
74471;SDS011;62920;53.572;10.050;2023-04-06T04:25:16;8.65;;;4.10;;
74471;SDS011;62920;53.572;10.050;2023-04-06T04:27:42;7.50;;;3.63;;
74471;SDS011;62920;53.572;10.050;2023-04-06T04:30:07;6.90;;;3.30;;
74471;SDS011;62920;53.572;10.050;2023-04-06T04:32:33;6.53;;;3.35;;
74471;SDS011;62920;53.572;10.050;2023-04-06T04:34:58;7.18;;;3.70;;
74471;SDS011;62920;53.572;10.050;2023-04-06T04:37:24;6.63;;;3.47;;
74471;SDS011;62920;53.572;10.050;2023-04-06T04:39:49;7.60;;;3.55;;
74471;SDS011;62920;53.572;10.050;2023-04-06T04:42:15;8.68;;;3.53;;
74471;SDS011;62920;53.572;10.050;2023-04-06T04:44:40;8.73;;;3.45;;
74471;SDS011;62920;53.572;10.050;2023-04-06T04:47:06;8.77;;;3.58;;
74471;SDS011;62920;53.572;10.050;2023-04-06T04:49:31;8.05;;;3.50;;
74471;SDS011;62920;53.572;10.050;2023-04-06T04:51:56;10.50;;;3.60;;
74471;SDS011;62920;53.572;10.050;2023-04-06T04:54:22;6.75;;;3.22;;
74471;SDS011;62920;53.572;10.050;2023-04-06T04:56:47;8.77;;;3.60;;
74471;SDS011;62920;53.572;10.050;2023-04-06T04:59:13;6.85;;;3.33;;
74471;SDS011;62920;53.572;10.050;2023-04-06T05:01:38;6.97;;;3.42;;
74471;SDS011;62920;53.572;10.050;2023-04-06T05:04:03;9.10;;;3.28;;
74471;SDS011;62920;53.572;10.050;2023-04-06T05:06:29;6.72;;;3.17;;
74471;SDS011;62920;53.572;10.050;2023-04-06T05:08:54;7.80;;;3.80;;
74471;SDS011;62920;53.572;10.050;2023-04-06T05:11:20;8.95;;;3.38;;
74471;SDS011;62920;53.572;10.050;2023-04-06T05:13:46;9.40;;;3.22;;
74471;SDS011;62920;53.572;10.050;2023-04-06T05:16:11;7.65;;;3.60;;
74471;SDS011;62920;53.572;10.050;2023-04-06T05:18:37;8.88;;;3.63;;
74471;SDS011;62920;53.572;10.050;2023-04-06T05:21:02;9.85;;;3.58;;
74471;SDS011;62920;53.572;10.050;2023-04-06T05:23:28;5.82;;;3.15;;
74471;SDS011;62920;53.572;10.050;2023-04-06T05:25:53;8.18;;;3.22;;
74471;SDS011;62920;53.572;10.050;2023-04-06T05:28:18;7.18;;;3.35;;
74471;SDS011;62920;53.572;10.050;2023-04-06T05:30:44;9.45;;;3.63;;
74471;SDS011;62920;53.572;10.050;2023-04-06T05:33:11;8.43;;;3.95;;
74471;SDS011;62920;53.572;10.050;2023-04-06T05:35:36;7.32;;;3.63;;
74471;SDS011;62920;53.572;10.050;2023-04-06T05:38:02;6.43;;;3.35;;
74471;SDS011;62920;53.572;10.050;2023-04-06T05:40:27;7.75;;;3.30;;
74471;SDS011;62920;53.572;10.050;2023-04-06T05:42:53;12.00;;;3.75;;
74471;SDS011;62920;53.572;10.050;2023-04-06T05:45:18;10.70;;;4.18;;
74471;SDS011;62920;53.572;10.050;2023-04-06T05:50:11;8.10;;;3.92;;
74471;SDS011;62920;53.572;10.050;2023-04-06T05:52:37;10.55;;;3.72;;
74471;SDS011;62920;53.572;10.050;2023-04-06T05:55:03;11.77;;;4.10;;
74471;SDS011;62920;53.572;10.050;2023-04-06T05:57:29;10.70;;;4.05;;
74471;SDS011;62920;53.572;10.050;2023-04-06T05:59:54;10.23;;;3.75;;
74471;SDS011;62920;53.572;10.050;2023-04-06T06:02:20;7.93;;;3.33;;
74471;SDS011;62920;53.572;10.050;2023-04-06T06:04:46;9.50;;;3.90;;
74471;SDS011;62920;53.572;10.050;2023-04-06T06:07:11;7.40;;;3.90;;
74471;SDS011;62920;53.572;10.050;2023-04-06T06:09:37;11.38;;;4.00;;
74471;SDS011;62920;53.572;10.050;2023-04-06T06:12:02;7.03;;;3.67;;
74471;SDS011;62920;53.572;10.050;2023-04-06T06:14:28;8.77;;;4.03;;
74471;SDS011;62920;53.572;10.050;2023-04-06T06:16:53;10.48;;;4.00;;
74471;SDS011;62920;53.572;10.050;2023-04-06T06:19:19;11.40;;;3.72;;
74471;SDS011;62920;53.572;10.050;2023-04-06T06:21:44;9.63;;;4.28;;
74471;SDS011;62920;53.572;10.050;2023-04-06T06:24:10;13.15;;;4.55;;
74471;SDS011;62920;53.572;10.050;2023-04-06T06:26:35;9.00;;;4.07;;
74471;SDS011;62920;53.572;10.050;2023-04-06T06:29:02;13.73;;;4.28;;
74471;SDS011;62920;53.572;10.050;2023-04-06T06:31:29;8.73;;;4.47;;
74471;SDS011;62920;53.572;10.050;2023-04-06T06:33:55;10.23;;;4.72;;
74471;SDS011;62920;53.572;10.050;2023-04-06T06:36:20;8.05;;;4.40;;
74471;SDS011;62920;53.572;10.050;2023-04-06T06:38:46;7.28;;;4.13;;
74471;SDS011;62920;53.572;10.050;2023-04-06T06:41:11;8.90;;;4.43;;
74471;SDS011;62920;53.572;10.050;2023-04-06T06:43:36;8.77;;;4.70;;
74471;SDS011;62920;53.572;10.050;2023-04-06T06:46:02;9.90;;;4.32;;
74471;SDS011;62920;53.572;10.050;2023-04-06T06:48:28;11.75;;;4.97;;
74471;SDS011;62920;53.572;10.050;2023-04-06T06:50:53;7.60;;;4.45;;
74471;SDS011;62920;53.572;10.050;2023-04-06T06:53:19;10.15;;;4.63;;
74471;SDS011;62920;53.572;10.050;2023-04-06T06:55:45;8.63;;;5.30;;
74471;SDS011;62920;53.572;10.050;2023-04-06T06:58:10;10.35;;;4.65;;
74471;SDS011;62920;53.572;10.050;2023-04-06T07:00:36;8.25;;;4.05;;
74471;SDS011;62920;53.572;10.050;2023-04-06T07:03:01;9.35;;;4.60;;
74471;SDS011;62920;53.572;10.050;2023-04-06T07:05:27;7.65;;;4.05;;
74471;SDS011;62920;53.572;10.050;2023-04-06T07:07:53;8.88;;;4.10;;
74471;SDS011;62920;53.572;10.050;2023-04-06T07:10:18;7.75;;;4.53;;
74471;SDS011;62920;53.572;10.050;2023-04-06T07:12:44;10.73;;;4.00;;
74471;SDS011;62920;53.572;10.050;2023-04-06T07:15:10;11.35;;;4.30;;
74471;SDS011;62920;53.572;10.050;2023-04-06T07:17:35;7.50;;;3.90;;
74471;SDS011;62920;53.572;10.050;2023-04-06T07:20:01;8.27;;;3.75;;
74471;SDS011;62920;53.572;10.050;2023-04-06T07:22:26;6.60;;;3.97;;
74471;SDS011;62920;53.572;10.050;2023-04-06T07:24:52;7.82;;;4.35;;
74471;SDS011;62920;53.572;10.050;2023-04-06T07:27:17;10.57;;;3.67;;
74471;SDS011;62920;53.572;10.050;2023-04-06T07:29:43;12.50;;;4.38;;
74471;SDS011;62920;53.572;10.050;2023-04-06T07:32:09;7.97;;;4.32;;
74471;SDS011;62920;53.572;10.050;2023-04-06T07:34:35;10.27;;;4.10;;
74471;SDS011;62920;53.572;10.050;2023-04-06T07:37:00;9.82;;;4.18;;
74471;SDS011;62920;53.572;10.050;2023-04-06T07:39:26;9.50;;;3.85;;
74471;SDS011;62920;53.572;10.050;2023-04-06T07:41:52;10.40;;;4.30;;
74471;SDS011;62920;53.572;10.050;2023-04-06T07:44:17;7.28;;;3.58;;
74471;SDS011;62920;53.572;10.050;2023-04-06T07:46:43;9.75;;;3.97;;
74471;SDS011;62920;53.572;10.050;2023-04-06T07:49:08;7.43;;;3.67;;
74471;SDS011;62920;53.572;10.050;2023-04-06T07:51:37;9.95;;;4.10;;
74471;SDS011;62920;53.572;10.050;2023-04-06T07:54:03;6.13;;;3.13;;
74471;SDS011;62920;53.572;10.050;2023-04-06T07:56:29;12.07;;;3.90;;
74471;SDS011;62920;53.572;10.050;2023-04-06T07:58:54;7.75;;;3.83;;
74471;SDS011;62920;53.572;10.050;2023-04-06T08:01:21;14.98;;;3.70;;
74471;SDS011;62920;53.572;10.050;2023-04-06T08:03:47;11.02;;;3.47;;
74471;SDS011;62920;53.572;10.050;2023-04-06T08:06:12;5.78;;;3.13;;
74471;SDS011;62920;53.572;10.050;2023-04-06T08:08:37;5.97;;;2.95;;
74471;SDS011;62920;53.572;10.050;2023-04-06T08:11:03;7.63;;;2.97;;
74471;SDS011;62920;53.572;10.050;2023-04-06T08:13:28;7.13;;;3.67;;
74471;SDS011;62920;53.572;10.050;2023-04-06T08:15:54;6.47;;;3.30;;
74471;SDS011;62920;53.572;10.050;2023-04-06T08:18:19;9.00;;;3.28;;
74471;SDS011;62920;53.572;10.050;2023-04-06T08:20:45;6.68;;;3.35;;
74471;SDS011;62920;53.572;10.050;2023-04-06T08:23:10;7.93;;;3.20;;
74471;SDS011;62920;53.572;10.050;2023-04-06T08:25:36;8.07;;;3.60;;
74471;SDS011;62920;53.572;10.050;2023-04-06T08:28:02;8.45;;;3.75;;
74471;SDS011;62920;53.572;10.050;2023-04-06T08:30:28;8.00;;;3.28;;
74471;SDS011;62920;53.572;10.050;2023-04-06T08:32:54;5.95;;;3.13;;
74471;SDS011;62920;53.572;10.050;2023-04-06T08:35:20;6.65;;;3.60;;
74471;SDS011;62920;53.572;10.050;2023-04-06T08:37:45;10.88;;;3.55;;
74471;SDS011;62920;53.572;10.050;2023-04-06T08:40:11;7.20;;;3.70;;
74471;SDS011;62920;53.572;10.050;2023-04-06T08:45:07;10.90;;;3.75;;
74471;SDS011;62920;53.572;10.050;2023-04-06T08:47:34;9.50;;;4.18;;
74471;SDS011;62920;53.572;10.050;2023-04-06T08:49:59;7.05;;;4.10;;
74471;SDS011;62920;53.572;10.050;2023-04-06T08:52:29;9.18;;;3.97;;
74471;SDS011;62920;53.572;10.050;2023-04-06T08:54:56;7.38;;;3.72;;
74471;SDS011;62920;53.572;10.050;2023-04-06T08:57:22;6.00;;;3.33;;
74471;SDS011;62920;53.572;10.050;2023-04-06T08:59:48;7.13;;;3.60;;
74471;SDS011;62920;53.572;10.050;2023-04-06T09:02:15;8.82;;;3.80;;
74471;SDS011;62920;53.572;10.050;2023-04-06T09:04:42;8.80;;;3.33;;
74471;SDS011;62920;53.572;10.050;2023-04-06T09:07:08;8.13;;;3.40;;
74471;SDS011;62920;53.572;10.050;2023-04-06T09:09:34;6.72;;;3.25;;
74471;SDS011;62920;53.572;10.050;2023-04-06T09:11:59;5.45;;;2.42;;
74471;SDS011;62920;53.572;10.050;2023-04-06T09:14:36;7.68;;;3.28;;
74471;SDS011;62920;53.572;10.050;2023-04-06T09:17:02;6.45;;;2.97;;
74471;SDS011;62920;53.572;10.050;2023-04-06T09:19:28;6.95;;;2.45;;
74471;SDS011;62920;53.572;10.050;2023-04-06T09:22:06;10.15;;;3.05;;
74471;SDS011;62920;53.572;10.050;2023-04-06T09:24:43;8.18;;;2.85;;
74471;SDS011;62920;53.572;10.050;2023-04-06T09:27:10;6.43;;;3.13;;
74471;SDS011;62920;53.572;10.050;2023-04-06T09:29:36;5.65;;;3.17;;
74471;SDS011;62920;53.572;10.050;2023-04-06T09:32:05;5.75;;;3.10;;
74471;SDS011;62920;53.572;10.050;2023-04-06T09:34:31;8.10;;;2.63;;
74471;SDS011;62920;53.572;10.050;2023-04-06T09:36:57;5.45;;;2.45;;
74471;SDS011;62920;53.572;10.050;2023-04-06T09:39:23;6.03;;;2.92;;
74471;SDS011;62920;53.572;10.050;2023-04-06T09:41:52;7.07;;;2.70;;
74471;SDS011;62920;53.572;10.050;2023-04-06T09:44:19;6.80;;;3.30;;
74471;SDS011;62920;53.572;10.050;2023-04-06T09:46:45;8.70;;;3.00;;
74471;SDS011;62920;53.572;10.050;2023-04-06T09:49:12;7.28;;;3.28;;
74471;SDS011;62920;53.572;10.050;2023-04-06T09:51:48;7.30;;;2.80;;
74471;SDS011;62920;53.572;10.050;2023-04-06T09:54:21;5.45;;;2.70;;
74471;SDS011;62920;53.572;10.050;2023-04-06T09:56:50;6.88;;;3.20;;
74471;SDS011;62920;53.572;10.050;2023-04-06T09:59:28;6.70;;;2.70;;
74471;SDS011;62920;53.572;10.050;2023-04-06T10:01:56;5.57;;;2.55;;
74471;SDS011;62920;53.572;10.050;2023-04-06T10:06:58;5.90;;;2.63;;
74471;SDS011;62920;53.572;10.050;2023-04-06T10:09:25;5.65;;;2.50;;
74471;SDS011;62920;53.572;10.050;2023-04-06T10:11:53;5.47;;;2.60;;
74471;SDS011;62920;53.572;10.050;2023-04-06T10:14:19;6.10;;;2.40;;
74471;SDS011;62920;53.572;10.050;2023-04-06T10:16:45;6.63;;;2.40;;
74471;SDS011;62920;53.572;10.050;2023-04-06T10:19:13;6.50;;;2.40;;
74471;SDS011;62920;53.572;10.050;2023-04-06T10:21:42;5.07;;;2.80;;
74471;SDS011;62920;53.572;10.050;2023-04-06T10:24:09;4.60;;;2.15;;
74471;SDS011;62920;53.572;10.050;2023-04-06T10:26:35;6.00;;;2.78;;
74471;SDS011;62920;53.572;10.050;2023-04-06T10:29:02;9.25;;;2.72;;
74471;SDS011;62920;53.572;10.050;2023-04-06T10:31:28;6.28;;;2.63;;
74471;SDS011;62920;53.572;10.050;2023-04-06T10:33:58;8.55;;;2.85;;
74471;SDS011;62920;53.572;10.050;2023-04-06T10:36:25;6.95;;;2.60;;
74471;SDS011;62920;53.572;10.050;2023-04-06T10:38:58;6.40;;;3.22;;
74471;SDS011;62920;53.572;10.050;2023-04-06T10:41:41;6.68;;;2.53;;
74471;SDS011;62920;53.572;10.050;2023-04-06T10:44:08;7.03;;;3.10;;
74471;SDS011;62920;53.572;10.050;2023-04-06T10:46:42;7.43;;;3.05;;
74471;SDS011;62920;53.572;10.050;2023-04-06T10:49:17;6.72;;;2.85;;
74471;SDS011;62920;53.572;10.050;2023-04-06T10:51:43;8.50;;;3.50;;
74471;SDS011;62920;53.572;10.050;2023-04-06T10:54:08;5.80;;;3.00;;
74471;SDS011;62920;53.572;10.050;2023-04-06T10:56:36;5.28;;;2.95;;
74471;SDS011;62920;53.572;10.050;2023-04-06T10:59:02;6.82;;;3.47;;
74471;SDS011;62920;53.572;10.050;2023-04-06T11:01:27;8.23;;;3.42;;
74471;SDS011;62920;53.572;10.050;2023-04-06T11:03:53;7.28;;;3.65;;
74471;SDS011;62920;53.572;10.050;2023-04-06T11:06:24;5.85;;;3.10;;
74471;SDS011;62920;53.572;10.050;2023-04-06T11:08:51;6.95;;;3.35;;
74471;SDS011;62920;53.572;10.050;2023-04-06T11:11:18;6.82;;;3.83;;
74471;SDS011;62920;53.572;10.050;2023-04-06T11:13:49;5.88;;;3.47;;
74471;SDS011;62920;53.572;10.050;2023-04-06T11:16:17;8.50;;;3.40;;
74471;SDS011;62920;53.572;10.050;2023-04-06T11:18:53;6.57;;;3.70;;
74471;SDS011;62920;53.572;10.050;2023-04-06T11:21:30;9.18;;;3.97;;
74471;SDS011;62920;53.572;10.050;2023-04-06T11:24:07;7.45;;;3.92;;
74471;SDS011;62920;53.572;10.050;2023-04-06T11:26:54;8.18;;;4.25;;
74471;SDS011;62920;53.572;10.050;2023-04-06T11:29:21;8.77;;;3.95;;
74471;SDS011;62920;53.572;10.050;2023-04-06T11:31:48;8.27;;;4.38;;
74471;SDS011;62920;53.572;10.050;2023-04-06T11:34:22;6.90;;;3.97;;
74471;SDS011;62920;53.572;10.050;2023-04-06T11:36:48;8.57;;;4.75;;
74471;SDS011;62920;53.572;10.050;2023-04-06T11:39:19;7.40;;;4.30;;
74471;SDS011;62920;53.572;10.050;2023-04-06T11:41:52;9.43;;;4.20;;
74471;SDS011;62920;53.572;10.050;2023-04-06T11:47:14;7.57;;;4.47;;
74471;SDS011;62920;53.572;10.050;2023-04-06T11:49:40;8.38;;;4.30;;
74471;SDS011;62920;53.572;10.050;2023-04-06T11:52:16;7.72;;;4.38;;
74471;SDS011;62920;53.572;10.050;2023-04-06T11:57:07;7.10;;;4.43;;
74471;SDS011;62920;53.572;10.050;2023-04-06T11:59:33;9.18;;;4.45;;
74471;SDS011;62920;53.572;10.050;2023-04-06T12:02:00;7.90;;;4.13;;
74471;SDS011;62920;53.572;10.050;2023-04-06T12:04:26;6.82;;;4.03;;
74471;SDS011;62920;53.572;10.050;2023-04-06T12:06:51;8.23;;;4.53;;
74471;SDS011;62920;53.572;10.050;2023-04-06T12:09:17;8.60;;;4.22;;
74471;SDS011;62920;53.572;10.050;2023-04-06T12:11:43;7.18;;;4.10;;
74471;SDS011;62920;53.572;10.050;2023-04-06T12:14:08;6.22;;;3.90;;
74471;SDS011;62920;53.572;10.050;2023-04-06T12:16:34;6.90;;;4.28;;
74471;SDS011;62920;53.572;10.050;2023-04-06T12:19:00;7.88;;;3.97;;
74471;SDS011;62920;53.572;10.050;2023-04-06T12:21:29;8.05;;;4.00;;
74471;SDS011;62920;53.572;10.050;2023-04-06T12:26:24;6.28;;;3.97;;
74471;SDS011;62920;53.572;10.050;2023-04-06T12:28:50;8.20;;;4.43;;
74471;SDS011;62920;53.572;10.050;2023-04-06T12:31:20;11.52;;;4.78;;
74471;SDS011;62920;53.572;10.050;2023-04-06T12:33:46;10.23;;;4.38;;
74471;SDS011;62920;53.572;10.050;2023-04-06T12:36:13;8.38;;;4.28;;
74471;SDS011;62920;53.572;10.050;2023-04-06T12:38:40;9.82;;;4.13;;
74471;SDS011;62920;53.572;10.050;2023-04-06T12:41:06;8.43;;;4.28;;
74471;SDS011;62920;53.572;10.050;2023-04-06T12:43:32;7.35;;;4.38;;
74471;SDS011;62920;53.572;10.050;2023-04-06T12:45:57;7.55;;;4.30;;
74471;SDS011;62920;53.572;10.050;2023-04-06T12:48:24;8.27;;;4.72;;
74471;SDS011;62920;53.572;10.050;2023-04-06T12:50:54;7.18;;;4.40;;
74471;SDS011;62920;53.572;10.050;2023-04-06T12:55:48;8.27;;;4.57;;
74471;SDS011;62920;53.572;10.050;2023-04-06T12:58:14;9.20;;;4.63;;
74471;SDS011;62920;53.572;10.050;2023-04-06T13:00:40;7.13;;;4.18;;
74471;SDS011;62920;53.572;10.050;2023-04-06T13:03:05;7.63;;;4.28;;
74471;SDS011;62920;53.572;10.050;2023-04-06T13:05:31;7.90;;;4.30;;
74471;SDS011;62920;53.572;10.050;2023-04-06T13:07:56;8.73;;;4.40;;
74471;SDS011;62920;53.572;10.050;2023-04-06T13:10:22;8.13;;;4.10;;
74471;SDS011;62920;53.572;10.050;2023-04-06T13:12:47;7.75;;;4.78;;
74471;SDS011;62920;53.572;10.050;2023-04-06T13:15:13;8.52;;;5.00;;
74471;SDS011;62920;53.572;10.050;2023-04-06T13:17:38;9.95;;;5.28;;
74471;SDS011;62920;53.572;10.050;2023-04-06T13:20:04;8.20;;;4.82;;
74471;SDS011;62920;53.572;10.050;2023-04-06T13:22:30;8.60;;;4.70;;
74471;SDS011;62920;53.572;10.050;2023-04-06T13:24:56;11.55;;;5.43;;
74471;SDS011;62920;53.572;10.050;2023-04-06T13:27:22;7.45;;;4.25;;
74471;SDS011;62920;53.572;10.050;2023-04-06T13:29:47;8.93;;;4.60;;
74471;SDS011;62920;53.572;10.050;2023-04-06T13:32:12;9.07;;;4.82;;
74471;SDS011;62920;53.572;10.050;2023-04-06T13:34:38;8.52;;;4.70;;
74471;SDS011;62920;53.572;10.050;2023-04-06T13:37:04;8.82;;;4.85;;
74471;SDS011;62920;53.572;10.050;2023-04-06T13:39:29;9.05;;;4.75;;
74471;SDS011;62920;53.572;10.050;2023-04-06T13:41:55;9.02;;;4.57;;
74471;SDS011;62920;53.572;10.050;2023-04-06T13:44:21;7.80;;;4.80;;
74471;SDS011;62920;53.572;10.050;2023-04-06T13:46:47;7.85;;;4.60;;
74471;SDS011;62920;53.572;10.050;2023-04-06T13:49:13;9.63;;;4.60;;
74471;SDS011;62920;53.572;10.050;2023-04-06T13:51:38;10.70;;;4.70;;
74471;SDS011;62920;53.572;10.050;2023-04-06T13:54:04;7.90;;;4.82;;
74471;SDS011;62920;53.572;10.050;2023-04-06T13:56:29;8.85;;;5.03;;
74471;SDS011;62920;53.572;10.050;2023-04-06T13:58:55;10.27;;;4.90;;
74471;SDS011;62920;53.572;10.050;2023-04-06T14:01:21;8.70;;;4.75;;
74471;SDS011;62920;53.572;10.050;2023-04-06T14:03:48;9.43;;;4.57;;
74471;SDS011;62920;53.572;10.050;2023-04-06T14:06:14;8.93;;;5.28;;
74471;SDS011;62920;53.572;10.050;2023-04-06T14:08:39;9.70;;;5.40;;
74471;SDS011;62920;53.572;10.050;2023-04-06T14:13:33;9.48;;;4.95;;
74471;SDS011;62920;53.572;10.050;2023-04-06T14:15:59;9.35;;;5.28;;
74471;SDS011;62920;53.572;10.050;2023-04-06T14:18:24;10.02;;;5.00;;
74471;SDS011;62920;53.572;10.050;2023-04-06T14:20:53;11.90;;;5.47;;
74471;SDS011;62920;53.572;10.050;2023-04-06T14:23:20;9.77;;;5.15;;
74471;SDS011;62920;53.572;10.050;2023-04-06T14:25:45;8.18;;;5.25;;
74471;SDS011;62920;53.572;10.050;2023-04-06T14:28:11;9.15;;;5.63;;
74471;SDS011;62920;53.572;10.050;2023-04-06T14:30:37;11.77;;;5.43;;
74471;SDS011;62920;53.572;10.050;2023-04-06T14:33:03;9.00;;;4.25;;
74471;SDS011;62920;53.572;10.050;2023-04-06T14:35:28;11.00;;;5.10;;
74471;SDS011;62920;53.572;10.050;2023-04-06T14:37:55;8.45;;;4.88;;
74471;SDS011;62920;53.572;10.050;2023-04-06T14:40:22;8.23;;;5.15;;
74471;SDS011;62920;53.572;10.050;2023-04-06T14:42:48;8.32;;;4.82;;
74471;SDS011;62920;53.572;10.050;2023-04-06T14:45:15;10.90;;;5.10;;
74471;SDS011;62920;53.572;10.050;2023-04-06T14:47:42;12.02;;;5.00;;